Time;durP1;ratioP1;P1;durP2;ratioP2;P2;SDS_P1;SDS_P2;PMS_P1;PMS_P2;Temp;Humidity;BMP_temperature;BMP_pressure;BME280_temperature;BME280_humidity;BME280_pressure;Samples;Min_cycle;Max_cycle;Signal;HPM_P1;HPM_P2
2022/03/29 00:03:40;;;;;;;15.77;9.32;;;;;;;8.74;60.86;100249.88;20700653;28;20058;-68
2022/03/29 00:13:41;;;;;;;19.83;9.25;;;;;;;8.81;60.49;100243.69;20698936;28;20042;-67
2022/03/29 00:23:43;;;;;;;18.27;9.27;;;;;;;8.91;60.42;100228.78;20698258;28;20050;-69
2022/03/29 00:33:46;;;;;;;16.85;9.35;;;;;;;8.85;60.87;100214.06;20697234;28;20125;-70
2022/03/29 00:44:06;;;;;;;15.57;8.85;;;;;;;8.90;60.50;100193.13;20695215;28;20474;-69
2022/03/29 00:54:08;;;;;;;16.90;9.00;;;;;;;8.83;61.01;100192.34;20697046;28;20401;-69
2022/03/29 02:36:26;;;;;;;16.17;9.18;;;;;;;7.63;69.19;100110.94;20718807;28;20136;-68
2022/03/29 02:46:28;;;;;;;17.48;9.40;;;;;;;7.58;70.57;100110.97;20707132;28;20058;-67
2022/03/29 02:56:30;;;;;;;22.45;10.45;;;;;;;7.53;70.00;100094.53;20704878;28;20047;-68
2022/03/29 03:06:31;;;;;;;21.25;9.80;;;;;;;7.52;70.51;100095.41;20704507;28;20451;-68
2022/03/29 03:16:33;;;;;;;17.25;10.18;;;;;;;7.36;71.48;100085.97;20701054;28;20488;-67
2022/03/29 03:26:54;;;;;;;18.23;9.68;;;;;;;7.24;72.41;100076.53;20703707;28;20482;-67
2022/03/29 03:36:57;;;;;;;17.42;9.90;;;;;;;7.17;73.65;100077.44;20702884;28;20455;-69
2022/03/29 03:47:02;;;;;;;21.02;9.60;;;;;;;7.16;74.13;100063.56;20701537;28;20058;-68
2022/03/29 03:57:04;;;;;;;18.13;10.60;;;;;;;7.23;74.87;100060.88;20700638;28;20046;-68
2022/03/29 04:07:06;;;;;;;21.92;9.70;;;;;;;7.23;74.38;100053.94;20700237;28;20054;-68
2022/03/29 04:17:10;;;;;;;16.70;9.93;;;;;;;7.17;75.40;100043.59;20699162;28;20729;-68
2022/03/29 04:27:11;;;;;;;16.17;10.27;;;;;;;7.11;75.53;100046.25;20699299;28;20057;-68
2022/03/29 04:37:13;;;;;;;18.67;10.48;;;;;;;7.02;76.48;100030.69;20697085;28;20050;-68
2022/03/29 04:47:14;;;;;;;16.08;9.60;;;;;;;6.89;76.97;100042.91;20697672;28;20104;-67
2022/03/29 04:57:16;;;;;;;20.83;10.10;;;;;;;6.74;78.40;100036.06;20696317;28;20164;-68
2022/03/29 05:07:18;;;;;;;17.55;10.52;;;;;;;6.56;78.68;100025.75;20695449;28;20412;-68
2022/03/29 05:17:19;;;;;;;22.00;11.93;;;;;;;6.57;79.57;100028.38;20699197;28;20108;-68
2022/03/29 05:27:21;;;;;;;21.38;11.55;;;;;;;6.50;79.28;100033.59;20693465;28;20050;-69
2022/03/29 05:37:22;;;;;;;20.15;11.57;;;;;;;6.44;79.69;100026.69;20696406;28;20053;-68
2022/03/29 05:57:44;;;;;;;23.67;12.48;;;;;;;6.85;78.41;100029.06;20710371;28;20053;-68
2022/03/29 06:07:46;;;;;;;25.80;12.07;;;;;;;7.08;77.74;100035.84;20708936;28;20387;-68
2022/03/29 06:17:47;;;;;;;24.05;13.68;;;;;;;7.37;77.81;100036.47;20676668;28;20463;-67
2022/03/29 06:27:49;;;;;;;20.98;12.15;;;;;;;7.61;76.65;100047.53;20707397;28;20050;-67
2022/03/29 06:37:53;;;;;;;25.40;13.13;;;;;;;7.84;73.56;100048.19;20704777;28;20041;-67
2022/03/29 06:47:56;;;;;;;24.75;12.30;;;;;;;8.13;72.25;100042.66;20717891;28;20053;-67
2022/03/29 06:57:58;;;;;;;21.20;11.23;;;;;;;8.56;71.66;100036.09;20726431;28;20569;-66
2022/03/29 07:07:59;;;;;;;19.40;12.20;;;;;;;9.08;70.31;100025.75;20723505;28;20100;-66
2022/03/29 07:18:00;;;;;;;20.38;11.35;;;;;;;9.29;67.70;100026.28;20707400;28;20062;-66
2022/03/29 07:28:03;;;;;;;19.67;11.95;;;;;;;9.80;65.37;100024.50;20697522;28;20050;-67
2022/03/29 07:38:09;;;;;;;22.50;11.35;;;;;;;10.25;62.38;100021.91;20696157;28;20058;-67
2022/03/29 07:48:10;;;;;;;22.70;17.17;;;;;;;10.49;62.77;100018.81;20694023;28;20096;-67
2022/03/29 07:58:32;;;;;;;18.92;10.10;;;;;;;10.93;61.12;100021.34;20693627;28;20054;-67
2022/03/29 08:08:34;;;;;;;19.00;11.70;;;;;;;11.30;60.68;100022.16;20690879;28;20105;-67
2022/03/29 08:18:38;;;;;;;22.60;12.27;;;;;;;11.73;59.38;100033.31;20694464;28;20058;-67
2022/03/29 08:28:39;;;;;;;24.70;14.25;;;;;;;12.25;57.68;100013.53;20689781;28;20047;-67
2022/03/29 08:39:03;;;;;;;34.05;19.52;;;;;;;12.58;56.78;100007.28;20689646;28;20050;-67
2022/03/29 08:49:08;;;;;;;51.10;26.10;;;;;;;12.46;58.94;100006.81;20648415;28;20554;-65
2022/03/29 08:59:10;;;;;;;52.60;25.50;;;;;;;12.89;57.41;99990.59;20685270;28;20096;-66
2022/03/29 09:09:30;;;;;;;47.92;25.40;;;;;;;13.32;55.73;99986.63;20686787;28;20132;-66
2022/03/29 09:19:48;;;;;;;46.35;23.40;;;;;;;13.56;54.32;99975.25;20688556;28;20054;-66
2022/03/29 09:30:06;;;;;;;39.30;22.08;;;;;;;14.06;55.17;99948.88;20695101;28;20568;-65
2022/03/29 09:40:09;;;;;;;50.50;24.52;;;;;;;14.27;52.93;99934.03;20686199;28;20046;-65
2022/03/29 09:50:13;;;;;;;49.33;24.55;;;;;;;14.79;52.53;99918.84;20685268;28;20392;-65
2022/03/29 10:00:30;;;;;;;45.40;23.95;;;;;;;14.97;52.14;99888.22;20684167;28;20058;-66
2022/03/29 10:10:32;;;;;;;47.00;25.63;;;;;;;14.97;50.16;99882.97;20689532;28;20049;-65
2022/03/29 10:20:35;;;;;;;43.47;25.40;;;;;;;15.18;51.55;99856.59;20684629;28;20105;-67
2022/03/29 10:30:39;;;;;;;50.55;26.40;;;;;;;15.59;51.39;99853.00;20690487;28;20042;-67
2022/03/29 10:40:42;;;;;;;52.40;26.88;;;;;;;15.64;48.18;99837.84;20699246;28;20553;-66
2022/03/29 10:50:47;;;;;;;53.53;27.17;;;;;;;15.89;47.90;99818.22;20700013;28;20060;-66
2022/03/29 11:00:48;;;;;;;47.93;27.13;;;;;;;15.87;48.10;99804.25;20697794;28;20056;-68
2022/03/29 11:10:50;;;;;;;63.97;29.30;;;;;;;16.04;47.61;99796.38;20699140;28;20054;-67
2022/03/29 11:20:55;;;;;;;52.95;26.67;;;;;;;16.30;47.89;99781.91;20697679;28;20466;-67
2022/03/29 11:30:56;;;;;;;;;;;;;;;16.40;44.21;99777.03;20697064;28;20092;-68
2022/03/29 11:41:00;;;;;;;50.65;25.52;;;;;;;16.54;41.66;99766.63;20694839;28;19928;-67
2022/03/29 11:51:02;;;;;;;47.58;24.30;;;;;;;16.77;45.74;99743.47;20694081;28;20042;-67
2022/03/29 12:01:07;;;;;;;50.65;24.90;;;;;;;16.67;42.31;99717.50;20691372;28;20050;-67
2022/03/29 12:11:09;;;;;;;42.20;22.20;;;;;;;16.98;38.53;99691.28;20693710;28;20080;-68
2022/03/29 12:21:17;;;;;;;44.70;22.75;;;;;;;17.32;39.27;99669.13;20692092;28;20050;-68
2022/03/29 12:31:20;;;;;;;42.92;22.15;;;;;;;17.66;37.17;99650.41;20690088;28;20045;-68
2022/03/29 12:41:38;;;;;;;35.78;19.45;;;;;;;17.91;38.34;99628.69;20688614;28;20101;-68
2022/03/29 12:51:40;;;;;;;39.28;20.10;;;;;;;17.82;37.60;99612.50;20688390;28;20042;-67
2022/03/29 13:01:41;;;;;;;35.33;19.63;;;;;;;17.81;37.61;99601.03;20645112;28;20070;-68
2022/03/29 13:11:43;;;;;;;31.90;17.70;;;;;;;18.09;37.41;99594.13;20677067;28;20129;-68
2022/03/29 13:21:45;;;;;;;36.78;19.48;;;;;;;18.20;35.39;99576.66;20691136;28;20643;-68
2022/03/29 13:31:50;;;;;;;41.53;19.45;;;;;;;18.51;35.86;99561.53;20691298;28;20490;-68
2022/03/29 13:41:54;;;;;;;36.42;19.25;;;;;;;18.23;37.49;99556.22;20684724;28;20404;-67
2022/03/29 13:51:57;;;;;;;39.03;20.60;;;;;;;18.13;34.44;99540.88;20684885;28;20602;-66
2022/03/29 14:02:02;;;;;;;38.75;18.50;;;;;;;18.19;36.66;99532.53;20684583;28;20112;-67
2022/03/29 14:12:04;;;;;;;37.65;20.25;;;;;;;18.33;34.28;99502.56;20701398;28;20061;-66
2022/03/29 14:22:06;;;;;;;36.70;18.45;;;;;;;18.25;37.02;99491.56;20698980;28;20066;-67
2022/03/29 14:32:09;;;;;;;41.25;19.60;;;;;;;17.91;34.25;99476.88;20698307;28;20077;-66
2022/03/29 14:42:11;;;;;;;35.72;20.10;;;;;;;17.65;34.84;99463.41;20698624;28;20503;-66
2022/03/29 14:52:15;;;;;;;41.78;19.83;;;;;;;17.95;33.86;99455.41;20697733;28;20050;-66
2022/03/29 15:02:17;;;;;;;32.13;17.35;;;;;;;17.82;34.08;99437.72;20695433;28;20053;-67
2022/03/29 15:12:19;;;;;;;38.28;18.70;;;;;;;17.88;34.64;99435.56;20696626;28;20084;-66
2022/03/29 15:22:20;;;;;;;36.97;18.35;;;;;;;17.70;34.75;99423.41;20688715;28;20050;-67
2022/03/29 15:32:23;;;;;;;42.72;20.88;;;;;;;17.92;35.47;99412.41;20700326;28;20108;-66
2022/03/29 15:42:25;;;;;;;43.28;20.35;;;;;;;17.50;36.22;99406.09;20695611;28;20073;-67
2022/03/29 15:52:27;;;;;;;43.58;20.83;;;;;;;17.55;36.45;99404.00;20693256;28;20112;-65
2022/03/29 16:02:29;;;;;;;42.15;19.92;;;;;;;17.32;37.28;99405.38;20691935;28;20100;-65
2022/03/29 16:12:33;;;;;;;41.15;21.35;;;;;;;17.30;37.57;99382.63;20695383;28;20046;-65
2022/03/29 16:22:35;;;;;;;38.73;21.33;;;;;;;17.11;39.38;99388.16;20690223;28;20111;-65
2022/03/29 16:32:41;;;;;;;48.88;23.98;;;;;;;16.84;41.28;99385.31;20686394;28;20472;-65
2022/03/29 16:42:42;;;;;;;52.45;25.27;;;;;;;16.58;42.63;99376.19;20689066;28;20050;-65
2022/03/29 16:52:44;;;;;;;49.65;28.50;;;;;;;16.42;45.76;99384.13;20810108;23;20417;-72
2022/03/29 17:02:45;;;;;;;62.05;32.17;;;;;;;16.31;47.86;99386.50;21018137;28;20505;-72
2022/03/29 17:12:47;;;;;;;56.53;29.13;;;;;;;16.03;48.00;99377.47;20964351;28;20048;-71
2022/03/29 17:22:49;;;;;;;54.10;28.77;;;;;;;15.94;49.22;99383.22;20954570;28;20052;-71
2022/03/29 17:32:52;;;;;;;56.00;26.40;;;;;;;15.76;49.27;99371.03;20954012;28;20072;-71
2022/03/29 17:42:54;;;;;;;67.68;34.58;;;;;;;15.47;49.73;99368.09;20957641;28;20055;-71
2022/03/29 17:52:55;;;;;;;68.15;31.88;;;;;;;15.23;51.00;99361.47;20959385;28;20646;-71
2022/03/29 18:02:57;;;;;;;60.35;28.17;;;;;;;15.10;51.21;99354.19;20960419;28;20077;-73
2022/03/29 18:12:59;;;;;;;53.92;27.85;;;;;;;15.02;51.79;99348.44;20954110;28;20049;-73
2022/03/29 18:23:01;;;;;;;70.07;34.58;;;;;;;14.88;51.60;99340.38;20961274;28;20409;-73
2022/03/29 18:33:03;;;;;;;60.42;29.00;;;;;;;14.84;51.99;99344.94;20959978;28;20056;-73
2022/03/29 18:43:06;;;;;;;55.28;28.45;;;;;;;14.60;54.32;99346.16;20961426;28;20725;-73
2022/03/29 18:53:09;;;;;;;51.47;25.30;;;;;;;14.55;53.02;99346.38;20971091;28;20753;-73
2022/03/29 19:03:11;;;;;;;57.53;27.73;;;;;;;14.51;53.47;99344.84;20973611;28;20102;-73
2022/03/29 19:13:14;;;;;;;54.20;27.38;;;;;;;14.41;53.80;99347.97;20966276;28;20097;-73
2022/03/29 19:23:15;;;;;;;50.58;22.48;;;;;;;14.34;54.25;99347.41;20973097;28;20079;-72
2022/03/29 19:33:17;;;;;;;52.70;23.50;;;;;;;14.11;56.51;99354.59;20970252;28;20501;-73
2022/03/29 19:43:42;;;;;;;40.17;21.42;;;;;;;13.91;58.24;99356.47;20968741;28;20048;-72
2022/03/29 19:53:43;;;;;;;45.50;20.87;;;;;;;13.77;60.14;99354.47;21013565;28;20048;-72
2022/03/29 20:03:46;;;;;;;41.83;21.20;;;;;;;13.63;60.42;99354.25;21022176;28;20422;-73
2022/03/29 20:13:48;;;;;;;45.42;23.48;;;;;;;13.49;61.13;99350.44;21024376;28;20051;-72
2022/03/29 20:23:50;;;;;;;46.63;23.63;;;;;;;13.46;62.18;99340.06;21021069;28;20511;-71
2022/03/29 20:33:53;;;;;;;48.05;23.15;;;;;;;13.29;63.64;99345.22;21020756;28;20399;-72
2022/03/29 20:43:54;;;;;;;47.00;24.38;;;;;;;13.14;62.78;99335.34;21016517;28;20094;-73
2022/03/29 20:53:58;;;;;;;54.63;26.00;;;;;;;13.05;63.16;99334.81;21019255;28;20057;-72
2022/03/29 21:04:00;;;;;;;54.73;25.23;;;;;;;13.02;65.25;99332.28;21018371;28;20440;-73
2022/03/29 21:14:02;;;;;;;52.63;24.67;;;;;;;13.02;65.07;99339.31;21015170;28;20389;-73
2022/03/29 21:24:03;;;;;;;49.05;25.90;;;;;;;13.00;67.48;99325.41;21014839;28;20063;-72
2022/03/29 21:34:05;;;;;;;60.53;28.15;;;;;;;12.96;66.50;99322.06;21018174;28;20089;-72
2022/03/29 21:44:07;;;;;;;50.50;24.88;;;;;;;12.73;67.77;99320.41;21017005;28;20055;-71
2022/03/29 21:54:09;;;;;;;47.78;25.02;;;;;;;12.70;69.35;99310.03;21015684;28;20147;-73
2022/03/29 22:04:11;;;;;;;55.72;27.40;;;;;;;12.59;68.06;99323.59;21017259;28;20105;-71
2022/03/29 22:14:12;;;;;;;51.25;23.83;;;;;;;12.34;70.66;99315.00;21023636;28;20172;-72
2022/03/29 22:24:14;;;;;;;54.20;25.63;;;;;;;12.39;70.02;99305.19;21023098;28;20056;-74
2022/03/29 22:34:15;;;;;;;48.97;25.35;;;;;;;12.28;71.00;99294.28;21039240;28;20043;-75
2022/03/29 22:44:17;;;;;;;51.50;25.33;;;;;;;12.23;71.45;99291.84;21038272;28;20059;-74
2022/03/29 22:54:18;;;;;;;51.30;26.58;;;;;;;12.24;71.48;99282.19;21037240;28;20575;-75
2022/03/29 23:04:20;;;;;;;46.78;24.08;;;;;;;12.03;73.61;99282.13;21037576;28;20102;-74
2022/03/29 23:14:22;;;;;;;47.60;24.38;;;;;;;12.02;74.25;99272.53;21038657;28;20075;-74
2022/03/29 23:24:25;;;;;;;46.17;23.70;;;;;;;12.04;73.79;99267.25;21035512;28;20052;-75
2022/03/29 23:34:27;;;;;;;41.72;23.30;;;;;;;11.97;74.18;99271.84;21034035;28;20051;-74
2022/03/29 23:44:28;;;;;;;56.83;25.10;;;;;;;12.01;78.00;99269.97;21024966;28;20455;-74
2022/03/29 23:54:32;;;;;;;50.63;25.83;;;;;;;12.00;80.46;99265.66;21033779;28;20040;-72
